Time;durP1;ratioP1;P1;durP2;ratioP2;P2;SDS_P1;SDS_P2;PMS_P1;PMS_P2;Temp;Humidity;BMP_temperature;BMP_pressure;BME280_temperature;BME280_humidity;BME280_pressure;Samples;Min_cycle;Max_cycle;Signal;HPM_P1;HPM_P2
2021/08/13 00:01:23;;;;;;;21.65;10.10;;;21.10;99.90;;;;;;4970757;28;20397;-64
2021/08/13 00:03:49;;;;;;;15.43;8.00;;;21.00;99.90;;;;;;4969331;28;20387;-64
2021/08/13 00:06:14;;;;;;;17.60;8.30;;;21.10;99.90;;;;;;4971462;28;20392;-62
2021/08/13 00:08:40;;;;;;;14.13;8.63;;;21.10;99.90;;;;;;4971041;28;20446;-58
2021/08/13 00:11:05;;;;;;;15.60;9.10;;;21.00;99.90;;;;;;4971110;28;20783;-64
2021/08/13 00:13:31;;;;;;;14.68;8.43;;;21.00;99.90;;;;;;4971158;28;20389;-64
2021/08/13 00:15:57;;;;;;;13.38;8.35;;;21.00;99.90;;;;;;4970004;28;20401;-64
2021/08/13 00:18:23;;;;;;;15.83;9.30;;;21.00;99.90;;;;;;4971876;28;20982;-64
2021/08/13 00:20:48;;;;;;;15.60;8.50;;;19.50;99.90;;;;;;4981826;28;20404;-64
2021/08/13 00:23:14;;;;;;;13.80;8.32;;;21.00;99.90;;;;;;4977660;28;20481;-63
2021/08/13 00:25:40;;;;;;;17.15;9.70;;;20.80;99.90;;;;;;4989901;28;20463;-58
2021/08/13 00:28:05;;;;;;;15.07;8.77;;;20.80;99.90;;;;;;4989700;28;20391;-62
2021/08/13 00:30:31;;;;;;;14.03;8.87;;;20.70;99.90;;;;;;4990109;28;20398;-64
2021/08/13 00:32:57;;;;;;;15.57;9.80;;;20.70;99.90;;;;;;4989506;28;20862;-63
2021/08/13 00:35:22;;;;;;;14.93;9.57;;;20.80;99.90;;;;;;4990127;28;20479;-64
2021/08/13 00:37:49;;;;;;;16.80;9.90;;;20.80;99.90;;;;;;4989345;28;20497;-64
2021/08/13 00:40:15;;;;;;;16.02;10.07;;;20.70;99.90;;;;;;4990044;28;20378;-64
2021/08/13 00:42:41;;;;;;;16.50;10.60;;;20.60;99.90;;;;;;4990333;28;20833;-59
2021/08/13 00:45:07;;;;;;;18.88;10.18;;;20.50;99.90;;;;;;4989869;28;20414;-64
2021/08/13 00:47:33;;;;;;;15.93;9.70;;;20.50;99.90;;;;;;4990154;28;20406;-64
2021/08/13 00:49:59;;;;;;;16.90;10.00;;;20.60;99.90;;;;;;4989154;28;20393;-64
2021/08/13 00:52:24;;;;;;;20.15;10.10;;;20.70;99.90;;;;;;4989662;28;20398;-64
2021/08/13 00:54:50;;;;;;;18.05;10.55;;;20.70;99.90;;;;;;4989271;28;20379;-64
2021/08/13 00:57:16;;;;;;;16.37;10.30;;;20.70;99.90;;;;;;4989665;28;20382;-64
2021/08/13 00:59:42;;;;;;;16.98;10.13;;;20.70;99.90;;;;;;4989369;28;20389;-59
2021/08/13 01:02:08;;;;;;;16.70;10.90;;;20.70;99.90;;;;;;4989581;28;20387;-64
2021/08/13 01:04:34;;;;;;;18.20;11.30;;;20.80;99.90;;;;;;4989978;28;20450;-64
2021/08/13 01:07:02;;;;;;;16.80;10.57;;;20.90;99.90;;;;;;4989082;28;20441;-63
2021/08/13 01:09:28;;;;;;;16.63;10.50;;;20.90;99.90;;;;;;4990136;28;20481;-64
2021/08/13 01:12:03;;;;;;;15.52;10.15;;;20.90;99.90;;;;;;4989009;28;20458;-64
2021/08/13 01:14:41;;;;;;;16.47;10.67;;;20.70;99.90;;;;;;4990155;28;20877;-64
2021/08/13 01:17:08;;;;;;;16.07;10.43;;;20.70;99.90;;;;;;4993129;28;20474;-64
2021/08/13 01:19:51;;;;;;;20.20;10.00;;;20.60;99.90;;;;;;4989324;28;20426;-64
2021/08/13 01:22:22;;;;;;;15.30;10.82;;;20.60;99.90;;;;;;4990092;28;20387;-63
2021/08/13 01:24:50;;;;;;;18.02;11.55;;;20.50;99.90;;;;;;4976775;28;20411;-64
2021/08/13 01:27:24;;;;;;;15.20;10.13;;;20.50;99.90;;;;;;4974106;28;20380;-64
2021/08/13 01:29:54;;;;;;;17.70;10.10;;;20.40;99.90;;;;;;4973102;28;20388;-65
2021/08/13 01:32:26;;;;;;;14.35;9.50;;;20.40;99.90;;;;;;4973823;28;20851;-64
2021/08/13 01:34:58;;;;;;;15.75;10.15;;;20.50;99.90;;;;;;4972589;28;21067;-64
2021/08/13 01:37:24;;;;;;;16.42;10.57;;;20.50;99.90;;;;;;4978907;28;20496;-64
2021/08/13 01:39:52;;;;;;;17.23;10.35;;;20.50;99.90;;;;;;4979907;28;20941;-64
2021/08/13 01:42:17;;;;;;;16.02;9.80;;;20.50;99.90;;;;;;4992798;28;20777;-64
2021/08/13 01:44:44;;;;;;;14.13;9.57;;;20.50;99.90;;;;;;4992462;28;20386;-59
2021/08/13 01:47:10;;;;;;;15.27;9.88;;;20.40;99.90;;;;;;4974769;28;20456;-63
2021/08/13 01:49:37;;;;;;;14.88;10.10;;;20.30;99.90;;;;;;4992557;28;20386;-63
2021/08/13 01:52:04;;;;;;;17.30;10.48;;;20.10;99.90;;;;;;4991468;28;20819;-63
2021/08/13 01:54:31;;;;;;;15.10;10.73;;;19.90;99.90;;;;;;4992843;28;20738;-64
2021/08/13 01:56:58;;;;;;;15.25;9.93;;;19.80;99.90;;;;;;4992092;28;20432;-64
2021/08/13 01:59:24;;;;;;;14.85;9.80;;;19.80;99.90;;;;;;4975386;28;20422;-64
2021/08/13 02:01:50;;;;;;;15.32;10.48;;;19.90;99.90;;;;;;4991817;28;20443;-63
2021/08/13 02:04:20;;;;;;;15.57;10.18;;;20.00;99.90;;;;;;4975298;28;20394;-63
2021/08/13 02:06:47;;;;;;;14.55;10.18;;;19.90;99.90;;;;;;4992440;28;20383;-59
2021/08/13 02:09:14;;;;;;;15.00;10.38;;;20.00;99.90;;;;;;4992330;28;20473;-64
2021/08/13 02:11:40;;;;;;;15.37;10.70;;;19.80;99.90;;;;;;4992809;28;20497;-64
2021/08/13 02:14:06;;;;;;;17.17;11.10;;;19.70;99.90;;;;;;4992152;28;20459;-64
2021/08/13 02:16:35;;;;;;;18.75;12.30;;;19.70;99.90;;;;;;4974841;28;20754;-63
2021/08/13 02:19:34;;;;;;;18.80;12.55;;;19.80;99.90;;;;;;4991692;28;20426;-64
2021/08/13 02:22:00;;;;;;;19.45;12.27;;;18.70;99.90;;;;;;4965247;28;20454;-64
2021/08/13 02:24:26;;;;;;;18.75;12.57;;;20.10;99.90;;;;;;4973709;28;20722;-63
2021/08/13 02:26:52;;;;;;;19.75;12.82;;;20.10;99.90;;;;;;4970765;28;20861;-62
2021/08/13 02:29:18;;;;;;;17.33;11.40;;;20.00;99.90;;;;;;4972581;28;20388;-62
2021/08/13 02:31:44;;;;;;;19.37;11.70;;;20.10;99.90;;;;;;4972899;28;20391;-64
2021/08/13 02:34:12;;;;;;;22.13;13.20;;;20.20;99.90;;;;;;4971285;28;20439;-61
2021/08/13 02:36:55;;;;;;;19.65;12.05;;;20.20;99.90;;;;;;4954991;28;20464;-61
2021/08/13 02:39:32;;;;;;;20.48;12.15;;;20.10;99.90;;;;;;4972050;28;20470;-63
2021/08/13 02:42:00;;;;;;;18.98;12.30;;;20.10;99.90;;;;;;4975782;28;20405;-69
2021/08/13 02:44:30;;;;;;;19.73;13.18;;;20.10;99.90;;;;;;4983935;28;20865;-69
2021/08/13 02:47:01;;;;;;;18.92;12.85;;;20.20;99.90;;;;;;4984184;28;20400;-67
2021/08/13 02:49:28;;;;;;;22.70;13.35;;;20.20;99.90;;;;;;4972356;28;20380;-65
2021/08/13 02:51:57;;;;;;;18.88;12.60;;;20.30;99.90;;;;;;4971649;28;20404;-67
2021/08/13 02:54:26;;;;;;;20.27;12.98;;;20.30;99.90;;;;;;4955490;28;20951;-62
2021/08/13 02:56:57;;;;;;;17.85;12.57;;;20.40;99.90;;;;;;4979707;28;20392;-67
2021/08/13 02:59:27;;;;;;;20.80;13.73;;;20.50;99.90;;;;;;4983565;28;20420;-66
2021/08/13 03:01:56;;;;;;;22.65;12.50;;;20.60;99.90;;;;;;4971565;28;20384;-62
2021/08/13 03:04:23;;;;;;;20.00;13.77;;;20.60;99.90;;;;;;4972476;28;20392;-66
2021/08/13 03:06:50;;;;;;;20.23;13.93;;;20.70;99.90;;;;;;4972096;28;20868;-58
2021/08/13 03:09:17;;;;;;;21.90;13.32;;;20.70;99.90;;;;;;4972022;28;20402;-62
2021/08/13 03:11:46;;;;;;;19.27;13.60;;;20.80;99.90;;;;;;4954848;28;20755;-63
2021/08/13 03:14:12;;;;;;;20.67;12.90;;;20.70;99.90;;;;;;4973831;28;20399;-69
2021/08/13 03:16:40;;;;;;;21.90;12.70;;;20.80;99.90;;;;;;4978812;28;20871;-68
2021/08/13 03:19:07;;;;;;;20.80;14.30;;;20.90;99.90;;;;;;4982347;28;20463;-67
2021/08/13 03:21:33;;;;;;;18.10;12.30;;;20.90;99.90;;;;;;4981340;28;20391;-67
2021/08/13 03:24:00;;;;;;;21.42;14.32;;;21.00;99.90;;;;;;4990151;28;20746;-62
2021/08/13 03:26:26;;;;;;;20.48;13.40;;;20.80;99.90;;;;;;4990608;28;20379;-66
2021/08/13 03:28:52;;;;;;;21.40;12.88;;;20.80;99.90;;;;;;4990428;28;20382;-60
2021/08/13 03:31:31;;;;;;;18.60;13.50;;;20.70;99.90;;;;;;4990697;28;20394;-62
2021/08/13 03:33:58;;;;;;;20.27;12.60;;;20.70;99.90;;;;;;4990090;28;20417;-68
2021/08/13 03:36:23;;;;;;;19.23;13.20;;;20.80;99.90;;;;;;4989081;28;20391;-61
2021/08/13 03:38:49;;;;;;;19.08;13.20;;;20.80;99.90;;;;;;4986658;28;20424;-69
2021/08/13 03:41:17;;;;;;;20.48;12.98;;;21.00;99.90;;;;;;4974130;28;20954;-64
2021/08/13 03:43:43;;;;;;;20.05;13.80;;;20.90;99.90;;;;;;4971381;28;20392;-65
2021/08/13 03:46:08;;;;;;;20.55;13.90;;;20.80;99.90;;;;;;4970534;28;20744;-63
2021/08/13 03:48:34;;;;;;;21.20;14.10;;;20.70;99.90;;;;;;4971185;28;20732;-63
2021/08/13 03:51:00;;;;;;;20.70;13.83;;;20.60;99.90;;;;;;4970248;28;20427;-61
2021/08/13 03:53:25;;;;;;;26.77;16.00;;;20.40;99.90;;;;;;4971069;28;20744;-65
2021/08/13 03:55:51;;;;;;;22.33;15.73;;;20.40;99.90;;;;;;4970635;28;20922;-58
2021/08/13 03:58:17;;;;;;;22.40;16.17;;;20.50;99.90;;;;;;4970628;28;20416;-68
2021/08/13 04:00:42;;;;;;;23.88;15.43;;;20.60;99.90;;;;;;4972114;28;20479;-69
2021/08/13 04:03:08;;;;;;;23.30;16.17;;;20.60;99.90;;;;;;4976610;28;20388;-63
2021/08/13 04:05:33;;;;;;;22.43;15.13;;;20.50;99.90;;;;;;4978470;28;20435;-63
2021/08/13 04:07:59;;;;;;;24.90;15.53;;;20.50;99.90;;;;;;4969852;28;20400;-62
2021/08/13 04:10:25;;;;;;;21.63;14.52;;;20.50;99.90;;;;;;4971873;28;20878;-63
2021/08/13 04:12:51;;;;;;;22.73;14.82;;;20.50;99.90;;;;;;4982552;28;20787;-63
2021/08/13 04:15:16;;;;;;;24.30;15.10;;;20.60;99.90;;;;;;4971111;28;20374;-61
2021/08/13 04:17:42;;;;;;;23.77;14.30;;;20.70;99.90;;;;;;4982568;28;20418;-64
2021/08/13 04:20:08;;;;;;;21.23;15.07;;;20.80;99.90;;;;;;4970101;28;20431;-64
2021/08/13 04:22:34;;;;;;;23.90;15.52;;;20.80;99.90;;;;;;4971142;28;20394;-63
2021/08/13 04:24:59;;;;;;;20.40;14.67;;;20.80;99.90;;;;;;4968875;28;20425;-63
2021/08/13 04:27:25;;;;;;;19.48;13.25;;;20.60;99.90;;;;;;4990471;28;20502;-63
2021/08/13 04:29:51;;;;;;;23.77;15.85;;;20.50;99.90;;;;;;4990511;28;20492;-64
2021/08/13 04:32:17;;;;;;;20.85;14.30;;;20.60;99.90;;;;;;4979525;28;21426;-64
2021/08/13 04:34:43;;;;;;;23.58;16.20;;;20.70;99.90;;;;;;4980599;28;20483;-64
2021/08/13 04:37:08;;;;;;;21.13;14.93;;;20.70;99.90;;;;;;4984191;28;20875;-63
2021/08/13 04:39:34;;;;;;;23.20;15.03;;;20.70;99.90;;;;;;4987203;28;20538;-63
2021/08/13 04:42:00;;;;;;;24.50;15.40;;;20.60;99.90;;;;;;4981319;28;20378;-63
2021/08/13 04:44:26;;;;;;;22.88;14.68;;;20.50;99.90;;;;;;4971545;28;20405;-63
2021/08/13 04:46:51;;;;;;;21.30;14.80;;;20.50;99.90;;;;;;4977529;28;20407;-63
2021/08/13 04:49:17;;;;;;;24.40;15.30;;;20.40;99.90;;;;;;4974529;28;20412;-63
2021/08/13 04:51:43;;;;;;;22.83;15.55;;;20.40;99.90;;;;;;4992331;28;20410;-63
2021/08/13 04:54:10;;;;;;;21.13;15.05;;;20.40;99.90;;;;;;4981214;28;20435;-63
2021/08/13 04:56:36;;;;;;;22.58;15.20;;;20.50;99.90;;;;;;4982819;28;20404;-62
2021/08/13 04:59:02;;;;;;;19.03;13.70;;;20.50;99.90;;;;;;4983814;28;20413;-63
2021/08/13 05:01:28;;;;;;;19.42;13.40;;;20.50;99.90;;;;;;4983932;28;20427;-63
2021/08/13 05:03:53;;;;;;;23.55;14.85;;;20.50;99.90;;;;;;4983012;28;20403;-63
2021/08/13 05:06:20;;;;;;;20.80;14.73;;;20.50;99.90;;;;;;4984197;28;20770;-63
2021/08/13 05:08:45;;;;;;;23.90;15.68;;;20.40;99.90;;;;;;4992111;28;20410;-64
2021/08/13 05:11:12;;;;;;;22.03;15.00;;;20.30;99.90;;;;;;4986219;28;20392;-63
2021/08/13 05:13:37;;;;;;;19.10;14.70;;;20.30;99.90;;;;;;4974753;28;20392;-64
2021/08/13 05:16:03;;;;;;;20.83;14.27;;;20.30;99.90;;;;;;4973824;28;20441;-63
2021/08/13 05:18:29;;;;;;;21.48;15.00;;;20.30;99.90;;;;;;4962993;28;20547;-62
2021/08/13 05:20:57;;;;;;;19.70;13.68;;;20.30;99.90;;;;;;4967209;28;20446;-60
2021/08/13 05:23:23;;;;;;;22.65;14.52;;;20.30;99.90;;;;;;4985475;28;20469;-64
2021/08/13 05:25:48;;;;;;;21.70;15.10;;;20.40;99.90;;;;;;4981112;28;20476;-64
2021/08/13 05:28:14;;;;;;;22.30;14.50;;;20.40;99.90;;;;;;4982066;28;20391;-64
2021/08/13 05:30:40;;;;;;;23.93;15.53;;;20.40;99.90;;;;;;4979598;28;20860;-64
2021/08/13 05:33:05;;;;;;;23.80;15.90;;;20.40;99.90;;;;;;4974917;28;20415;-63
2021/08/13 05:35:31;;;;;;;22.90;15.77;;;20.40;99.90;;;;;;4983049;28;20407;-64
2021/08/13 05:38:00;;;;;;;25.20;15.20;;;20.60;99.90;;;;;;4977077;28;20918;-58
2021/08/13 05:40:28;;;;;;;26.30;15.70;;;20.60;99.90;;;;;;4967400;28;20745;-62
2021/08/13 05:42:55;;;;;;;24.20;16.60;;;20.70;99.90;;;;;;4972748;28;20902;-62
2021/08/13 05:45:21;;;;;;;23.90;15.05;;;20.70;99.90;;;;;;4973284;28;20864;-62
2021/08/13 05:47:47;;;;;;;20.40;14.10;;;21.10;99.90;;;;;;4973811;28;20415;-62
2021/08/13 05:50:15;;;;;;;19.43;13.10;;;21.90;99.90;;;;;;4972802;28;20400;-62
2021/08/13 05:52:46;;;;;;;19.98;12.30;;;22.90;99.90;;;;;;4977678;28;20493;-63
2021/08/13 05:55:12;;;;;;;21.10;13.25;;;24.30;99.90;;;;;;4983408;28;20908;-63
2021/08/13 05:57:39;;;;;;;18.90;12.65;;;25.40;99.90;;;;;;4978363;28;20391;-61
2021/08/13 06:00:06;;;;;;;18.70;12.15;;;26.80;99.90;;;;;;4955077;28;20396;-61
2021/08/13 06:02:33;;;;;;;18.20;11.60;;;27.90;99.90;;;;;;4991293;28;20394;-61
2021/08/13 06:04:59;;;;;;;18.92;11.98;;;28.70;99.90;;;;;;4974723;28;20401;-56
2021/08/13 06:07:25;;;;;;;17.55;11.52;;;29.30;99.90;;;;;;4991922;28;20390;-61
2021/08/13 06:09:51;;;;;;;17.27;11.60;;;30.20;99.90;;;;;;4983368;28;20843;-66
2021/08/13 06:12:18;;;;;;;19.63;11.90;;;30.60;99.90;;;;;;4972013;28;20393;-61
2021/08/13 06:14:43;;;;;;;18.40;11.73;;;30.30;99.90;;;;;;4973228;28;20392;-64
2021/08/13 06:17:09;;;;;;;15.40;12.00;;;30.10;99.90;;;;;;4972396;28;20418;-64
2021/08/13 06:19:35;;;;;;;19.30;12.00;;;30.00;99.90;;;;;;4955771;28;20415;-64
2021/08/13 06:22:03;;;;;;;16.08;11.30;;;29.80;99.90;;;;;;4972202;28;20388;-59
2021/08/13 06:24:29;;;;;;;18.50;11.68;;;29.90;99.90;;;;;;4973088;28;20882;-64
2021/08/13 06:26:54;;;;;;;17.65;11.50;;;29.90;99.90;;;;;;4982044;28;20390;-64
2021/08/13 06:29:21;;;;;;;16.52;11.13;;;29.90;99.90;;;;;;4991297;28;20386;-64
2021/08/13 06:31:52;;;;;;;16.50;11.20;;;30.20;99.90;;;;;;4992218;28;20443;-65
2021/08/13 06:34:18;;;;;;;17.87;10.60;;;30.50;99.90;;;;;;4991456;28;20444;-64
2021/08/13 06:36:47;;;;;;;16.08;10.65;;;30.50;99.90;;;;;;4992201;28;20411;-64
2021/08/13 06:39:13;;;;;;;14.70;11.63;;;31.20;99.90;;;;;;4990919;28;20422;-64
2021/08/13 06:41:39;;;;;;;18.77;15.20;;;31.60;99.90;;;;;;4991937;28;20433;-62
2021/08/13 06:44:05;;;;;;;14.13;10.40;;;32.00;99.90;;;;;;4990950;28;20395;-64
2021/08/13 06:46:31;;;;;;;15.00;10.75;;;31.50;99.90;;;;;;4992064;28;20834;-65
2021/08/13 06:48:56;;;;;;;14.30;11.10;;;30.50;99.90;;;;;;4991474;28;20445;-65
2021/08/13 06:51:22;;;;;;;16.57;11.90;;;29.80;99.90;;;;;;4990881;28;20429;-64
2021/08/13 06:53:48;;;;;;;14.60;10.13;;;28.80;99.90;;;;;;4991026;28;20379;-63
2021/08/13 06:56:13;;;;;;;14.60;10.43;;;28.00;99.90;;;;;;4990820;28;20827;-62
2021/08/13 06:58:39;;;;;;;14.67;10.53;;;27.40;99.90;;;;;;4991153;28;20810;-62
2021/08/13 07:01:04;;;;;;;15.80;10.00;;;27.10;99.90;;;;;;4981568;28;20396;-57
2021/08/13 07:03:30;;;;;;;17.20;11.07;;;27.10;99.90;;;;;;4971948;28;20434;-62
2021/08/13 07:05:56;;;;;;;16.35;9.63;;;27.20;99.90;;;;;;4954616;28;20902;-63
2021/08/13 07:08:21;;;;;;;12.87;9.30;;;27.40;99.90;;;;;;4970554;28;20392;-62
2021/08/13 07:10:47;;;;;;;14.68;9.80;;;28.00;99.90;;;;;;4971377;28;20392;-63
2021/08/13 07:13:13;;;;;;;13.23;9.13;;;28.70;99.90;;;;;;4970501;28;20443;-63
2021/08/13 07:15:39;;;;;;;15.77;9.60;;;29.70;99.90;;;;;;4971564;28;20475;-63
2021/08/13 07:18:04;;;;;;;14.00;10.00;;;30.40;99.90;;;;;;4971126;28;20519;-57
2021/08/13 07:20:30;;;;;;;14.52;9.43;;;31.30;99.90;;;;;;4971911;28;20455;-63
2021/08/13 07:22:56;;;;;;;12.50;8.90;;;32.40;99.90;;;;;;4971366;28;20389;-64
2021/08/13 07:25:21;;;;;;;15.00;9.70;;;33.30;98.90;;;;;;4971051;28;20559;-64
2021/08/13 07:27:47;;;;;;;14.80;10.18;;;33.70;96.50;;;;;;4971817;28;20717;-64
2021/08/13 07:30:14;;;;;;;14.70;9.80;;;33.70;97.20;;;;;;4970990;28;20611;-64
2021/08/13 07:32:40;;;;;;;17.17;15.35;;;34.10;94.40;;;;;;4971766;28;20395;-65
2021/08/13 07:35:06;;;;;;;14.98;9.65;;;35.20;91.70;;;;;;4970776;28;20392;-59
2021/08/13 07:37:33;;;;;;;14.13;9.85;;;35.60;89.40;;;;;;4971386;28;20388;-64
2021/08/13 07:39:58;;;;;;;14.48;9.30;;;35.50;88.50;;;;;;4971197;28;20388;-65
2021/08/13 07:42:26;;;;;;;25.10;22.67;;;35.60;86.50;;;;;;4970680;28;20396;-64
2021/08/13 07:44:52;;;;;;;14.75;11.90;;;36.10;83.10;;;;;;4971210;28;21088;-65
2021/08/13 07:47:18;;;;;;;15.52;13.40;;;35.70;82.70;;;;;;4970298;28;20400;-65
2021/08/13 07:49:44;;;;;;;12.57;9.18;;;35.60;84.20;;;;;;4971173;28;20393;-63
2021/08/13 07:52:09;;;;;;;13.25;9.85;;;35.90;82.20;;;;;;4970309;28;20443;-64
2021/08/13 07:54:35;;;;;;;14.13;9.30;;;35.90;81.80;;;;;;4970724;28;20392;-65
2021/08/13 07:57:01;;;;;;;13.43;9.73;;;36.40;81.80;;;;;;4970864;28;20481;-66
2021/08/13 07:59:27;;;;;;;14.32;10.82;;;36.80;78.30;;;;;;4969992;28;20756;-66
2021/08/13 08:01:52;;;;;;;14.52;9.73;;;36.60;79.00;;;;;;4986794;28;20406;-66
2021/08/13 08:04:18;;;;;;;12.70;9.83;;;37.60;75.70;;;;;;4972606;28;20398;-66
2021/08/13 08:06:43;;;;;;;13.70;11.20;;;37.70;74.50;;;;;;4990394;28;20410;-66
2021/08/13 08:09:09;;;;;;;13.32;10.13;;;37.70;72.20;;;;;;4990188;28;20850;-65
2021/08/13 08:11:35;;;;;;;13.93;10.30;;;37.20;73.80;;;;;;4990412;28;20766;-66
2021/08/13 08:14:00;;;;;;;13.57;9.77;;;36.60;74.10;;;;;;4990563;28;20396;-66
2021/08/13 08:16:26;;;;;;;17.38;10.88;;;37.00;74.30;;;;;;4990261;28;20393;-66
2021/08/13 08:18:52;;;;;;;13.70;9.80;;;37.20;73.80;;;;;;4990377;28;20501;-66
2021/08/13 08:21:17;;;;;;;15.05;9.48;;;37.40;73.00;;;;;;4989682;28;20465;-67
2021/08/13 08:23:43;;;;;;;15.83;9.77;;;37.60;70.50;;;;;;4990233;28;20382;-66
2021/08/13 08:26:09;;;;;;;15.00;10.10;;;38.00;69.90;;;;;;4988958;28;20378;-64
2021/08/13 08:28:34;;;;;;;14.68;11.80;;;38.20;67.90;;;;;;4990176;28;20429;-64
2021/08/13 08:31:00;;;;;;;15.10;10.87;;;38.50;67.30;;;;;;4989936;28;20473;-65
2021/08/13 08:33:25;;;;;;;14.35;10.02;;;39.20;66.10;;;;;;4989090;28;20726;-64
2021/08/13 08:35:51;;;;;;;13.00;10.30;;;39.50;63.60;;;;;;4989811;28;20387;-64
2021/08/13 08:38:17;;;;;;;13.77;10.18;;;39.50;62.30;;;;;;4989022;28;20830;-66
2021/08/13 08:40:42;;;;;;;17.73;10.70;;;39.10;64.60;;;;;;4990254;28;20394;-64
2021/08/13 08:43:09;;;;;;;14.02;10.20;;;38.30;64.30;;;;;;4972229;28;20485;-60
2021/08/13 08:45:37;;;;;;;12.65;9.40;;;37.80;65.70;;;;;;4989778;28;20386;-66
2021/08/13 08:48:06;;;;;;;12.73;8.70;;;37.50;66.40;;;;;;4989809;28;20426;-66
2021/08/13 08:50:35;;;;;;;12.93;9.65;;;38.00;64.20;;;;;;4989825;28;20433;-66
2021/08/13 08:53:04;;;;;;;15.32;8.95;;;38.60;60.60;;;;;;4990551;28;20385;-66
2021/08/13 08:55:31;;;;;;;14.30;9.65;;;37.90;63.80;;;;;;4989060;28;20386;-64
2021/08/13 08:57:58;;;;;;;13.02;8.80;;;37.40;64.50;;;;;;4989267;28;20951;-66
2021/08/13 09:00:24;;;;;;;13.03;8.70;;;37.60;65.40;;;;;;4984762;28;20384;-63
2021/08/13 09:02:50;;;;;;;13.70;8.13;;;38.80;61.20;;;;;;4970859;28;20407;-66
2021/08/13 09:05:16;;;;;;;12.38;9.00;;;40.00;59.50;;;;;;4969008;28;20392;-66
2021/08/13 09:07:41;;;;;;;12.00;8.52;;;39.70;58.30;;;;;;4952989;28;20398;-63
2021/08/13 09:10:11;;;;;;;12.68;8.43;;;39.90;57.90;;;;;;4970143;28;20389;-66
2021/08/13 09:12:37;;;;;;;12.90;8.03;;;40.30;56.10;;;;;;4970044;28;20396;-65
2021/08/13 09:15:03;;;;;;;11.27;8.10;;;39.70;57.50;;;;;;4970112;28;20491;-66
2021/08/13 09:17:31;;;;;;;14.40;9.10;;;39.10;57.90;;;;;;4969223;28;21155;-65
2021/08/13 09:19:57;;;;;;;13.00;9.00;;;39.30;59.40;;;;;;4952705;28;20416;-66
2021/08/13 09:22:24;;;;;;;13.43;9.60;;;39.60;58.90;;;;;;4969476;28;20851;-66
2021/08/13 09:24:52;;;;;;;11.57;8.63;;;39.70;58.60;;;;;;4970098;28;20846;-66
2021/08/13 09:27:22;;;;;;;10.90;8.37;;;41.00;57.10;;;;;;4969155;28;20388;-66
2021/08/13 09:30:09;;;;;;;11.70;9.00;;;41.10;56.20;;;;;;4969900;28;20400;-65
2021/08/13 09:32:35;;;;;;;12.70;9.00;;;40.80;56.00;;;;;;4969096;28;20392;-65
2021/08/13 09:35:02;;;;;;;13.05;9.50;;;39.60;57.40;;;;;;4969832;28;20411;-65
2021/08/13 09:37:28;;;;;;;12.52;8.77;;;38.90;58.40;;;;;;4972757;28;20380;-66
2021/08/13 09:39:55;;;;;;;13.30;9.32;;;38.50;59.30;;;;;;4973571;28;20427;-66
2021/08/13 09:42:31;;;;;;;13.30;9.27;;;38.70;59.00;;;;;;4972637;28;20471;-66
2021/08/13 09:45:02;;;;;;;12.40;9.18;;;39.30;57.80;;;;;;4973054;28;20377;-65
2021/08/13 09:47:58;;;;;;;13.90;9.18;;;39.90;56.90;;;;;;4972130;28;20396;-66
2021/08/13 09:50:38;;;;;;;11.52;8.32;;;39.50;57.20;;;;;;4955622;28;20432;-64
2021/08/13 09:53:05;;;;;;;12.73;8.30;;;39.60;57.50;;;;;;4973230;28;20796;-65
2021/08/13 09:55:30;;;;;;;12.17;9.00;;;39.90;57.30;;;;;;4972561;28;20860;-64
2021/08/13 09:57:56;;;;;;;11.60;8.70;;;40.20;56.60;;;;;;4972931;28;20403;-65
2021/08/13 10:00:21;;;;;;;11.75;9.18;;;39.90;57.60;;;;;;4975864;28;20394;-63
2021/08/13 10:02:47;;;;;;;12.50;9.40;;;39.80;55.70;;;;;;4992797;28;20449;-66
2021/08/13 10:05:18;;;;;;;13.13;9.02;;;39.70;56.70;;;;;;4992429;28;20850;-60
2021/08/13 10:08:04;;;;;;;12.60;8.90;;;39.40;57.20;;;;;;4992388;28;20394;-64
2021/08/13 10:10:42;;;;;;;12.38;9.10;;;39.10;57.20;;;;;;4991094;28;20399;-66
2021/08/13 10:13:10;;;;;;;13.70;9.32;;;38.90;58.70;;;;;;4992531;28;20395;-66
2021/08/13 10:15:38;;;;;;;13.82;11.20;;;39.10;58.10;;;;;;4991409;28;20386;-65
2021/08/13 10:18:12;;;;;;;15.17;13.67;;;38.00;58.70;;;;;;4992369;28;20916;-65
2021/08/13 10:20:48;;;;;;;14.75;12.90;;;36.60;60.40;;;;;;4991216;28;20386;-65
2021/08/13 10:23:15;;;;;;;14.55;12.98;;;36.00;62.80;;;;;;4992175;28;20382;-61
2021/08/13 10:25:41;;;;;;;14.73;12.18;;;36.20;63.10;;;;;;4992171;28;20466;-65
2021/08/13 10:28:07;;;;;;;13.50;11.65;;;36.80;61.90;;;;;;4992084;28;20533;-65
2021/08/13 10:30:33;;;;;;;14.07;12.43;;;37.20;61.70;;;;;;4991464;28;20421;-64
2021/08/13 10:33:02;;;;;;;14.40;11.48;;;37.00;61.40;;;;;;4992338;28;20494;-65
2021/08/13 10:35:34;;;;;;;13.18;11.88;;;36.80;61.80;;;;;;4991298;28;20446;-65
2021/08/13 10:38:02;;;;;;;14.10;12.30;;;36.80;61.70;;;;;;4992290;28;20407;-65
2021/08/13 10:40:31;;;;;;;13.75;12.35;;;36.00;62.60;;;;;;4991046;28;20445;-65
2021/08/13 10:42:58;;;;;;;14.00;12.60;;;35.30;65.00;;;;;;4991819;28;20402;-65
2021/08/13 10:45:27;;;;;;;15.00;12.55;;;34.80;66.20;;;;;;4990795;28;20401;-65
2021/08/13 10:48:05;;;;;;;13.70;12.30;;;34.30;68.00;;;;;;4991031;28;20398;-65
2021/08/13 10:50:31;;;;;;;13.65;12.25;;;34.00;69.00;;;;;;4990551;28;20433;-65
2021/08/13 10:52:57;;;;;;;15.23;12.40;;;34.30;69.90;;;;;;4991613;28;20866;-65
2021/08/13 10:55:38;;;;;;;13.87;12.43;;;34.20;70.00;;;;;;4990476;28;20421;-65
2021/08/13 10:58:03;;;;;;;13.25;11.73;;;34.30;69.90;;;;;;4991206;28;20502;-65
2021/08/13 11:01:05;;;;;;;15.60;13.02;;;34.10;70.50;;;;;;4986007;28;20483;-64
2021/08/13 11:03:31;;;;;;;13.90;12.47;;;34.40;70.50;;;;;;4971456;28;20429;-65
2021/08/13 11:05:58;;;;;;;14.10;12.60;;;34.20;70.00;;;;;;4972144;28;20388;-65
2021/08/13 11:08:46;;;;;;;15.73;12.15;;;34.00;71.00;;;;;;4971585;28;20470;-65
2021/08/13 11:11:15;;;;;;;14.75;12.07;;;34.00;70.40;;;;;;4971614;28;20392;-65
2021/08/13 11:13:43;;;;;;;13.93;12.43;;;33.90;71.50;;;;;;4971305;28;20396;-65
2021/08/13 11:16:24;;;;;;;14.65;12.02;;;33.90;71.10;;;;;;4971594;28;20452;-65
2021/08/13 11:18:57;;;;;;;14.68;11.95;;;34.10;71.40;;;;;;4971649;28;20428;-64
2021/08/13 11:21:49;;;;;;;13.95;11.07;;;34.10;70.80;;;;;;4971085;28;20401;-65
2021/08/13 11:24:20;;;;;;;17.80;12.50;;;34.50;70.40;;;;;;4971729;28;20395;-65
2021/08/13 11:26:55;;;;;;;15.07;12.50;;;34.70;69.80;;;;;;4971413;28;20393;-65
2021/08/13 11:29:30;;;;;;;13.80;12.30;;;34.40;70.60;;;;;;4970688;28;20429;-60
2021/08/13 11:32:14;;;;;;;14.40;12.27;;;34.40;70.90;;;;;;4971618;28;20385;-65
2021/08/13 11:35:01;;;;;;;17.50;12.63;;;33.90;73.10;;;;;;4970689;28;20994;-65
2021/08/13 11:37:38;;;;;;;19.05;12.43;;;34.10;72.80;;;;;;4970796;28;20388;-65
2021/08/13 11:40:29;;;;;;;16.85;13.50;;;33.90;73.40;;;;;;4971534;28;20458;-65
2021/08/13 11:42:59;;;;;;;14.38;12.88;;;33.70;73.60;;;;;;4970736;28;20788;-65
2021/08/13 11:45:40;;;;;;;14.95;12.50;;;33.90;74.00;;;;;;4970193;28;20420;-65
2021/08/13 11:48:07;;;;;;;17.15;12.63;;;34.10;73.90;;;;;;4970652;28;20415;-62
2021/08/13 11:50:33;;;;;;;14.38;11.30;;;34.30;73.30;;;;;;4970626;28;20915;-64
2021/08/13 11:52:59;;;;;;;16.45;11.60;;;34.40;72.70;;;;;;4953752;28;20792;-64
2021/08/13 11:55:28;;;;;;;17.92;13.20;;;34.30;73.10;;;;;;4970364;28;20404;-64
2021/08/13 11:57:58;;;;;;;13.32;11.93;;;34.30;73.30;;;;;;4970855;28;20420;-64
2021/08/13 12:00:29;;;;;;;13.90;11.88;;;33.80;74.00;;;;;;4974290;28;20390;-64
2021/08/13 12:03:06;;;;;;;15.35;12.45;;;33.60;74.70;;;;;;4990002;28;20390;-64
2021/08/13 12:05:41;;;;;;;14.48;11.55;;;33.60;75.30;;;;;;4989573;28;20390;-65
2021/08/13 12:08:09;;;;;;;13.90;12.38;;;33.90;75.70;;;;;;4990170;28;20472;-64
2021/08/13 12:10:36;;;;;;;15.68;11.98;;;34.10;74.70;;;;;;4989719;28;20394;-66
2021/08/13 12:13:09;;;;;;;16.58;12.02;;;33.80;74.80;;;;;;4990376;28;20387;-64
2021/08/13 12:15:37;;;;;;;15.05;11.98;;;33.70;75.50;;;;;;4989954;28;20830;-64
2021/08/13 12:18:05;;;;;;;13.45;11.50;;;33.70;75.60;;;;;;4972394;28;20422;-64
2021/08/13 12:20:32;;;;;;;12.65;11.23;;;33.90;75.50;;;;;;4989523;28;20393;-64
2021/08/13 12:23:02;;;;;;;15.20;11.85;;;33.50;77.90;;;;;;4989977;28;21170;-64
2021/08/13 12:25:46;;;;;;;13.20;11.80;;;33.50;77.90;;;;;;4989176;28;20398;-64
2021/08/13 12:28:15;;;;;;;13.52;10.70;;;33.80;78.20;;;;;;4989729;28;20800;-63
2021/08/13 12:30:41;;;;;;;15.10;12.00;;;34.20;76.90;;;;;;4989431;28;20401;-64
2021/08/13 12:33:14;;;;;;;14.40;12.03;;;32.70;75.70;;;;;;4990389;28;20414;-64
2021/08/13 12:35:47;;;;;;;15.35;11.48;;;34.20;77.50;;;;;;4988944;28;20865;-65